首页
METAR-TAF:

METAR-TAF

机场 :

Rock Hill/York County Airport (Bryant Field)

Rock Hill, 南卡罗来纳州, 美国

纬度: 34-59-02N, 经度: 081-03-21W, 海拔: 204米

当前天气观测

该预报发布于1小时和1分钟前的09:54 UTC
静风
温度 21°C
湿度 83%
气压 1020 hPa
能見度: 12.9公里
阴天层高于900英尺

METAR: KUZA 260954Z AUTO 00000KT 8SM OVC009 21/18 A3011 RMK AO2 SLP186 T02060183

时间: 06:55 (10:55 UTC)


TAF: 丢失

超过4000个机场的气象观测和天气预报(METAR&TAF报告)。

可查询的气象台以黄色和红色小点在地图上表示。

将鼠标移到小点上方,可查看气象台名称。

然后点击查看天气观测和预报。

如需切换地图:点击带黑十字的绿色按钮放大地图;点击带横线的绿色按钮缩小地图;或者点击绿色箭头查看邻近地区的地图。


METAR-TAF: